sensor_id;sensor_type;location;lat;lon;timestamp;temperature;humidity
80931;DHT22;70388;42.698;23.324;2023-12-14T00:00:29;8.30;75.50
80931;DHT22;70388;42.698;23.324;2023-12-14T00:02:55;8.20;75.60
80931;DHT22;70388;42.698;23.324;2023-12-14T00:05:21;8.10;76.20
80931;DHT22;70388;42.698;23.324;2023-12-14T00:07:46;8.20;76.10
80931;DHT22;70388;42.698;23.324;2023-12-14T00:10:12;8.30;75.80
80931;DHT22;70388;42.698;23.324;2023-12-14T00:12:38;8.50;74.90
80931;DHT22;70388;42.698;23.324;2023-12-14T00:15:05;8.40;75.10
80931;DHT22;70388;42.698;23.324;2023-12-14T00:17:31;8.50;74.60
80931;DHT22;70388;42.698;23.324;2023-12-14T00:19:57;8.30;75.10
80931;DHT22;70388;42.698;23.324;2023-12-14T00:22:22;8.30;75.70
80931;DHT22;70388;42.698;23.324;2023-12-14T00:24:48;8.30;75.50
80931;DHT22;70388;42.698;23.324;2023-12-14T00:27:14;8.30;75.70
80931;DHT22;70388;42.698;23.324;2023-12-14T00:29:39;8.20;75.90
80931;DHT22;70388;42.698;23.324;2023-12-14T00:32:06;8.30;75.60
80931;DHT22;70388;42.698;23.324;2023-12-14T00:34:31;8.40;75.10
80931;DHT22;70388;42.698;23.324;2023-12-14T00:36:57;8.20;75.70
80931;DHT22;70388;42.698;23.324;2023-12-14T00:39:23;8.20;75.80
80931;DHT22;70388;42.698;23.324;2023-12-14T00:41:48;8.30;75.50
80931;DHT22;70388;42.698;23.324;2023-12-14T00:44:14;8.20;75.90
80931;DHT22;70388;42.698;23.324;2023-12-14T00:46:40;8.20;76.20
80931;DHT22;70388;42.698;23.324;2023-12-14T00:49:07;8.30;76.00
80931;DHT22;70388;42.698;23.324;2023-12-14T00:51:33;8.30;75.90
80931;DHT22;70388;42.698;23.324;2023-12-14T00:53:59;8.30;75.60
80931;DHT22;70388;42.698;23.324;2023-12-14T00:56:24;8.20;75.90
80931;DHT22;70388;42.698;23.324;2023-12-14T00:58:50;8.20;76.20
80931;DHT22;70388;42.698;23.324;2023-12-14T01:01:16;8.20;76.40
80931;DHT22;70388;42.698;23.324;2023-12-14T01:03:41;8.20;76.20
80931;DHT22;70388;42.698;23.324;2023-12-14T01:06:07;8.20;76.30
80931;DHT22;70388;42.698;23.324;2023-12-14T01:08:33;8.20;76.40
80931;DHT22;70388;42.698;23.324;2023-12-14T01:10:59;8.10;77.00
80931;DHT22;70388;42.698;23.324;2023-12-14T01:13:24;8.10;77.40
80931;DHT22;70388;42.698;23.324;2023-12-14T01:15:50;8.10;77.70
80931;DHT22;70388;42.698;23.324;2023-12-14T01:18:16;8.00;78.00
80931;DHT22;70388;42.698;23.324;2023-12-14T01:20:42;8.00;78.10
80931;DHT22;70388;42.698;23.324;2023-12-14T01:23:08;8.00;77.90
80931;DHT22;70388;42.698;23.324;2023-12-14T01:25:35;8.10;77.70
80931;DHT22;70388;42.698;23.324;2023-12-14T01:28:01;8.00;77.90
80931;DHT22;70388;42.698;23.324;2023-12-14T01:30:27;8.10;77.60
80931;DHT22;70388;42.698;23.324;2023-12-14T01:32:53;7.90;78.40
80931;DHT22;70388;42.698;23.324;2023-12-14T01:35:18;7.90;79.00
80931;DHT22;70388;42.698;23.324;2023-12-14T01:37:44;8.10;78.40
80931;DHT22;70388;42.698;23.324;2023-12-14T01:40:10;7.90;80.00
80931;DHT22;70388;42.698;23.324;2023-12-14T01:42:36;7.90;79.20
80931;DHT22;70388;42.698;23.324;2023-12-14T01:45:02;7.90;79.20
80931;DHT22;70388;42.698;23.324;2023-12-14T01:47:29;7.90;79.20
80931;DHT22;70388;42.698;23.324;2023-12-14T01:49:54;7.70;80.30
80931;DHT22;70388;42.698;23.324;2023-12-14T01:52:20;7.60;81.40
80931;DHT22;70388;42.698;23.324;2023-12-14T01:54:46;7.70;81.80
80931;DHT22;70388;42.698;23.324;2023-12-14T01:57:12;7.80;81.30
80931;DHT22;70388;42.698;23.324;2023-12-14T01:59:37;7.70;81.50
80931;DHT22;70388;42.698;23.324;2023-12-14T02:02:03;7.80;81.40
80931;DHT22;70388;42.698;23.324;2023-12-14T02:04:31;7.90;80.90
80931;DHT22;70388;42.698;23.324;2023-12-14T02:06:56;7.80;81.00
80931;DHT22;70388;42.698;23.324;2023-12-14T02:09:22;7.60;82.30
80931;DHT22;70388;42.698;23.324;2023-12-14T02:11:48;7.50;82.70
80931;DHT22;70388;42.698;23.324;2023-12-14T02:14:14;7.60;83.70
80931;DHT22;70388;42.698;23.324;2023-12-14T02:16:40;7.60;83.20
80931;DHT22;70388;42.698;23.324;2023-12-14T02:19:06;7.60;83.40
80931;DHT22;70388;42.698;23.324;2023-12-14T02:21:32;7.80;82.90
80931;DHT22;70388;42.698;23.324;2023-12-14T02:23:57;7.70;82.70
80931;DHT22;70388;42.698;23.324;2023-12-14T02:26:23;7.80;82.60
80931;DHT22;70388;42.698;23.324;2023-12-14T02:28:49;7.80;82.10
80931;DHT22;70388;42.698;23.324;2023-12-14T02:31:15;7.90;81.50
80931;DHT22;70388;42.698;23.324;2023-12-14T02:33:41;7.90;81.40
80931;DHT22;70388;42.698;23.324;2023-12-14T02:36:07;7.80;81.90
80931;DHT22;70388;42.698;23.324;2023-12-14T02:38:33;8.00;81.50
80931;DHT22;70388;42.698;23.324;2023-12-14T02:40:58;7.90;81.20
80931;DHT22;70388;42.698;23.324;2023-12-14T02:43:24;7.90;80.80
80931;DHT22;70388;42.698;23.324;2023-12-14T02:45:50;7.90;80.80
80931;DHT22;70388;42.698;23.324;2023-12-14T02:48:16;7.80;80.90
80931;DHT22;70388;42.698;23.324;2023-12-14T02:50:42;7.90;80.70
80931;DHT22;70388;42.698;23.324;2023-12-14T02:53:07;7.90;80.30
80931;DHT22;70388;42.698;23.324;2023-12-14T02:55:33;7.80;81.00
80931;DHT22;70388;42.698;23.324;2023-12-14T02:57:59;7.90;80.90
80931;DHT22;70388;42.698;23.324;2023-12-14T03:00:25;7.80;80.90
80931;DHT22;70388;42.698;23.324;2023-12-14T03:02:50;7.80;81.10
80931;DHT22;70388;42.698;23.324;2023-12-14T03:05:16;7.90;80.50
80931;DHT22;70388;42.698;23.324;2023-12-14T03:07:42;7.70;81.80
80931;DHT22;70388;42.698;23.324;2023-12-14T03:10:08;7.70;82.50
80931;DHT22;70388;42.698;23.324;2023-12-14T03:12:34;7.80;82.30
80931;DHT22;70388;42.698;23.324;2023-12-14T03:14:59;7.90;82.10
80931;DHT22;70388;42.698;23.324;2023-12-14T03:17:25;7.90;81.50
80931;DHT22;70388;42.698;23.324;2023-12-14T03:19:51;7.90;81.40
80931;DHT22;70388;42.698;23.324;2023-12-14T03:22:16;8.00;81.30
80931;DHT22;70388;42.698;23.324;2023-12-14T03:24:42;8.00;80.80
80931;DHT22;70388;42.698;23.324;2023-12-14T03:27:08;8.00;80.90
80931;DHT22;70388;42.698;23.324;2023-12-14T03:29:34;8.10;80.90
80931;DHT22;70388;42.698;23.324;2023-12-14T03:32:00;8.10;80.70
80931;DHT22;70388;42.698;23.324;2023-12-14T03:34:26;8.00;80.70
80931;DHT22;70388;42.698;23.324;2023-12-14T03:36:52;8.10;80.50
80931;DHT22;70388;42.698;23.324;2023-12-14T03:39:18;8.20;79.60
80931;DHT22;70388;42.698;23.324;2023-12-14T03:41:44;8.30;79.50
80931;DHT22;70388;42.698;23.324;2023-12-14T03:44:10;8.20;79.30
80931;DHT22;70388;42.698;23.324;2023-12-14T03:46:36;8.00;80.50
80931;DHT22;70388;42.698;23.324;2023-12-14T03:49:02;8.00;80.90
80931;DHT22;70388;42.698;23.324;2023-12-14T03:51:29;8.10;80.30
80931;DHT22;70388;42.698;23.324;2023-12-14T03:53:55;8.00;80.50
80931;DHT22;70388;42.698;23.324;2023-12-14T03:56:21;8.00;81.20
80931;DHT22;70388;42.698;23.324;2023-12-14T03:58:46;8.00;82.90
80931;DHT22;70388;42.698;23.324;2023-12-14T04:01:19;8.00;81.30
80931;DHT22;70388;42.698;23.324;2023-12-14T04:03:46;8.10;80.70
80931;DHT22;70388;42.698;23.324;2023-12-14T04:06:13;7.90;82.10
80931;DHT22;70388;42.698;23.324;2023-12-14T04:08:39;7.80;82.60
80931;DHT22;70388;42.698;23.324;2023-12-14T04:11:05;7.70;84.10
80931;DHT22;70388;42.698;23.324;2023-12-14T04:13:31;7.50;85.90
80931;DHT22;70388;42.698;23.324;2023-12-14T04:15:57;7.30;87.70
80931;DHT22;70388;42.698;23.324;2023-12-14T04:18:23;7.30;88.90
80931;DHT22;70388;42.698;23.324;2023-12-14T04:20:49;7.60;87.70
80931;DHT22;70388;42.698;23.324;2023-12-14T04:23:15;7.60;87.40
80931;DHT22;70388;42.698;23.324;2023-12-14T04:25:41;7.90;85.70
80931;DHT22;70388;42.698;23.324;2023-12-14T04:28:06;7.90;84.80
80931;DHT22;70388;42.698;23.324;2023-12-14T04:30:32;7.70;85.90
80931;DHT22;70388;42.698;23.324;2023-12-14T04:32:58;7.80;85.20
80931;DHT22;70388;42.698;23.324;2023-12-14T04:35:24;7.90;84.10
80931;DHT22;70388;42.698;23.324;2023-12-14T04:37:49;7.50;85.10
80931;DHT22;70388;42.698;23.324;2023-12-14T04:40:15;7.50;85.60
80931;DHT22;70388;42.698;23.324;2023-12-14T04:42:41;7.50;85.60
80931;DHT22;70388;42.698;23.324;2023-12-14T04:45:07;7.50;85.70
80931;DHT22;70388;42.698;23.324;2023-12-14T04:47:35;7.20;86.80
80931;DHT22;70388;42.698;23.324;2023-12-14T04:50:01;6.70;88.70
80931;DHT22;70388;42.698;23.324;2023-12-14T04:52:27;6.50;90.10
80931;DHT22;70388;42.698;23.324;2023-12-14T04:54:53;6.60;90.20
80931;DHT22;70388;42.698;23.324;2023-12-14T04:57:19;6.60;90.40
80931;DHT22;70388;42.698;23.324;2023-12-14T04:59:44;6.80;90.00
80931;DHT22;70388;42.698;23.324;2023-12-14T05:02:13;6.90;89.60
80931;DHT22;70388;42.698;23.324;2023-12-14T05:04:38;7.10;88.30
80931;DHT22;70388;42.698;23.324;2023-12-14T05:07:04;7.20;87.70
80931;DHT22;70388;42.698;23.324;2023-12-14T05:09:30;7.20;87.30
80931;DHT22;70388;42.698;23.324;2023-12-14T05:12:05;6.80;89.50
80931;DHT22;70388;42.698;23.324;2023-12-14T05:14:31;6.80;90.10
80931;DHT22;70388;42.698;23.324;2023-12-14T05:16:56;6.60;90.60
80931;DHT22;70388;42.698;23.324;2023-12-14T05:19:22;6.70;90.90
80931;DHT22;70388;42.698;23.324;2023-12-14T05:21:48;6.60;90.80
80931;DHT22;70388;42.698;23.324;2023-12-14T05:24:15;6.70;91.10
80931;DHT22;70388;42.698;23.324;2023-12-14T05:26:40;7.00;90.60
80931;DHT22;70388;42.698;23.324;2023-12-14T05:29:06;7.20;90.50
80931;DHT22;70388;42.698;23.324;2023-12-14T05:31:32;7.30;89.00
80931;DHT22;70388;42.698;23.324;2023-12-14T05:33:58;7.60;87.50
80931;DHT22;70388;42.698;23.324;2023-12-14T05:36:24;7.70;86.30
80931;DHT22;70388;42.698;23.324;2023-12-14T05:38:49;7.70;87.10
80931;DHT22;70388;42.698;23.324;2023-12-14T05:41:15;7.80;86.20
80931;DHT22;70388;42.698;23.324;2023-12-14T05:43:41;7.50;87.70
80931;DHT22;70388;42.698;23.324;2023-12-14T05:46:07;7.50;88.40
80931;DHT22;70388;42.698;23.324;2023-12-14T05:48:33;7.60;87.60
80931;DHT22;70388;42.698;23.324;2023-12-14T05:51:00;7.70;86.60
80931;DHT22;70388;42.698;23.324;2023-12-14T05:53:26;7.80;86.00
80931;DHT22;70388;42.698;23.324;2023-12-14T05:55:52;7.80;86.10
80931;DHT22;70388;42.698;23.324;2023-12-14T05:58:18;7.80;85.90
80931;DHT22;70388;42.698;23.324;2023-12-14T06:00:44;7.80;85.70
80931;DHT22;70388;42.698;23.324;2023-12-14T06:03:09;7.80;87.00
80931;DHT22;70388;42.698;23.324;2023-12-14T06:05:35;7.90;85.60
80931;DHT22;70388;42.698;23.324;2023-12-14T06:08:01;8.00;85.70
80931;DHT22;70388;42.698;23.324;2023-12-14T06:10:26;8.00;85.40
80931;DHT22;70388;42.698;23.324;2023-12-14T06:12:52;7.80;87.10
80931;DHT22;70388;42.698;23.324;2023-12-14T06:15:18;7.90;86.00
80931;DHT22;70388;42.698;23.324;2023-12-14T06:17:44;7.80;86.70
80931;DHT22;70388;42.698;23.324;2023-12-14T06:20:10;8.10;85.70
80931;DHT22;70388;42.698;23.324;2023-12-14T06:22:36;8.00;86.70
80931;DHT22;70388;42.698;23.324;2023-12-14T06:25:02;8.10;86.50
80931;DHT22;70388;42.698;23.324;2023-12-14T06:27:31;8.10;85.00
80931;DHT22;70388;42.698;23.324;2023-12-14T06:29:57;8.30;84.60
80931;DHT22;70388;42.698;23.324;2023-12-14T06:32:23;8.40;83.60
80931;DHT22;70388;42.698;23.324;2023-12-14T06:34:50;8.10;84.40
80931;DHT22;70388;42.698;23.324;2023-12-14T06:37:16;8.10;85.10
80931;DHT22;70388;42.698;23.324;2023-12-14T06:39:42;8.40;84.20
80931;DHT22;70388;42.698;23.324;2023-12-14T06:42:08;8.60;83.40
80931;DHT22;70388;42.698;23.324;2023-12-14T06:44:33;8.80;82.00
80931;DHT22;70388;42.698;23.324;2023-12-14T06:46:59;8.90;81.30
80931;DHT22;70388;42.698;23.324;2023-12-14T06:49:25;8.80;81.50
80931;DHT22;70388;42.698;23.324;2023-12-14T06:51:51;8.80;82.20
80931;DHT22;70388;42.698;23.324;2023-12-14T06:54:17;8.60;81.80
80931;DHT22;70388;42.698;23.324;2023-12-14T06:56:43;8.60;82.40
80931;DHT22;70388;42.698;23.324;2023-12-14T06:59:09;8.80;81.20
80931;DHT22;70388;42.698;23.324;2023-12-14T07:01:35;8.80;80.80
80931;DHT22;70388;42.698;23.324;2023-12-14T07:04:01;9.10;79.60
80931;DHT22;70388;42.698;23.324;2023-12-14T07:06:28;8.60;81.30
80931;DHT22;70388;42.698;23.324;2023-12-14T07:08:54;8.60;82.20
80931;DHT22;70388;42.698;23.324;2023-12-14T07:11:20;8.90;80.80
80931;DHT22;70388;42.698;23.324;2023-12-14T07:13:46;9.00;79.60
80931;DHT22;70388;42.698;23.324;2023-12-14T07:16:13;9.00;80.60
80931;DHT22;70388;42.698;23.324;2023-12-14T07:18:41;9.30;79.20
80931;DHT22;70388;42.698;23.324;2023-12-14T07:21:07;9.20;79.10
80931;DHT22;70388;42.698;23.324;2023-12-14T07:23:34;9.30;78.50
80931;DHT22;70388;42.698;23.324;2023-12-14T07:26:00;9.50;77.40
80931;DHT22;70388;42.698;23.324;2023-12-14T07:28:28;9.60;77.10
80931;DHT22;70388;42.698;23.324;2023-12-14T07:30:54;9.80;76.50
80931;DHT22;70388;42.698;23.324;2023-12-14T07:33:20;10.00;75.00
80931;DHT22;70388;42.698;23.324;2023-12-14T07:35:46;10.10;74.90
80931;DHT22;70388;42.698;23.324;2023-12-14T07:38:12;10.10;74.60
80931;DHT22;70388;42.698;23.324;2023-12-14T07:40:38;9.70;75.30
80931;DHT22;70388;42.698;23.324;2023-12-14T07:43:05;9.50;75.80
80931;DHT22;70388;42.698;23.324;2023-12-14T07:45:31;9.80;74.00
80931;DHT22;70388;42.698;23.324;2023-12-14T07:47:56;10.00;72.20
80931;DHT22;70388;42.698;23.324;2023-12-14T07:50:23;9.80;72.50
80931;DHT22;70388;42.698;23.324;2023-12-14T07:52:49;9.90;71.80
80931;DHT22;70388;42.698;23.324;2023-12-14T07:55:14;10.10;71.40
80931;DHT22;70388;42.698;23.324;2023-12-14T07:57:40;10.40;70.10
80931;DHT22;70388;42.698;23.324;2023-12-14T08:00:07;10.30;69.50
80931;DHT22;70388;42.698;23.324;2023-12-14T08:02:36;10.30;70.00
80931;DHT22;70388;42.698;23.324;2023-12-14T08:05:02;10.60;68.80
80931;DHT22;70388;42.698;23.324;2023-12-14T08:07:27;10.40;69.00
80931;DHT22;70388;42.698;23.324;2023-12-14T08:09:58;10.70;68.50
80931;DHT22;70388;42.698;23.324;2023-12-14T08:12:24;11.10;67.10
80931;DHT22;70388;42.698;23.324;2023-12-14T08:14:50;11.50;65.70
80931;DHT22;70388;42.698;23.324;2023-12-14T08:17:16;11.80;64.50
80931;DHT22;70388;42.698;23.324;2023-12-14T08:19:42;11.80;63.80
80931;DHT22;70388;42.698;23.324;2023-12-14T08:22:08;11.50;64.60
80931;DHT22;70388;42.698;23.324;2023-12-14T08:24:37;11.50;65.00
80931;DHT22;70388;42.698;23.324;2023-12-14T08:27:03;11.70;64.60
80931;DHT22;70388;42.698;23.324;2023-12-14T08:29:29;11.60;64.50
80931;DHT22;70388;42.698;23.324;2023-12-14T08:31:54;11.80;64.70
80931;DHT22;70388;42.698;23.324;2023-12-14T08:34:24;12.00;63.40
80931;DHT22;70388;42.698;23.324;2023-12-14T08:36:49;11.50;65.00
80931;DHT22;70388;42.698;23.324;2023-12-14T08:39:15;11.20;65.70
80931;DHT22;70388;42.698;23.324;2023-12-14T08:41:41;11.10;66.90
80931;DHT22;70388;42.698;23.324;2023-12-14T08:44:07;11.40;66.50
80931;DHT22;70388;42.698;23.324;2023-12-14T08:46:44;11.90;64.40
80931;DHT22;70388;42.698;23.324;2023-12-14T08:49:11;12.40;63.00
80931;DHT22;70388;42.698;23.324;2023-12-14T08:51:37;12.70;61.40
80931;DHT22;70388;42.698;23.324;2023-12-14T08:54:04;12.50;61.90
80931;DHT22;70388;42.698;23.324;2023-12-14T08:56:30;12.90;60.90
80931;DHT22;70388;42.698;23.324;2023-12-14T08:58:55;13.30;59.90
80931;DHT22;70388;42.698;23.324;2023-12-14T09:01:23;13.40;58.80
80931;DHT22;70388;42.698;23.324;2023-12-14T09:03:49;13.60;58.90
80931;DHT22;70388;42.698;23.324;2023-12-14T09:06:16;13.90;57.80
80931;DHT22;70388;42.698;23.324;2023-12-14T09:08:43;14.10;57.00
80931;DHT22;70388;42.698;23.324;2023-12-14T09:11:09;14.20;57.00
80931;DHT22;70388;42.698;23.324;2023-12-14T09:13:35;13.90;57.00
80931;DHT22;70388;42.698;23.324;2023-12-14T09:16:00;13.40;58.60
80931;DHT22;70388;42.698;23.324;2023-12-14T09:18:27;12.80;60.50
80931;DHT22;70388;42.698;23.324;2023-12-14T09:20:52;12.60;61.70
80931;DHT22;70388;42.698;23.324;2023-12-14T09:23:18;12.90;60.90
80931;DHT22;70388;42.698;23.324;2023-12-14T09:25:46;13.10;60.20
80931;DHT22;70388;42.698;23.324;2023-12-14T09:28:12;13.50;59.50
80931;DHT22;70388;42.698;23.324;2023-12-14T09:30:38;13.50;59.80
80931;DHT22;70388;42.698;23.324;2023-12-14T09:33:04;13.70;58.70
80931;DHT22;70388;42.698;23.324;2023-12-14T09:35:29;14.10;58.00
80931;DHT22;70388;42.698;23.324;2023-12-14T09:37:55;14.40;56.60
80931;DHT22;70388;42.698;23.324;2023-12-14T09:40:22;14.50;56.10
80931;DHT22;70388;42.698;23.324;2023-12-14T09:42:48;14.70;55.60
80931;DHT22;70388;42.698;23.324;2023-12-14T09:45:16;14.70;55.20
80931;DHT22;70388;42.698;23.324;2023-12-14T09:47:44;14.60;55.40
80931;DHT22;70388;42.698;23.324;2023-12-14T09:50:12;14.70;55.50
80931;DHT22;70388;42.698;23.324;2023-12-14T09:52:40;14.70;55.70
80931;DHT22;70388;42.698;23.324;2023-12-14T09:55:11;14.80;55.10
80931;DHT22;70388;42.698;23.324;2023-12-14T09:57:36;14.70;54.90
80931;DHT22;70388;42.698;23.324;2023-12-14T10:00:02;14.80;55.00
80931;DHT22;70388;42.698;23.324;2023-12-14T10:02:31;14.70;55.20
80931;DHT22;70388;42.698;23.324;2023-12-14T10:04:57;14.70;55.20
80931;DHT22;70388;42.698;23.324;2023-12-14T10:07:22;14.70;55.20
80931;DHT22;70388;42.698;23.324;2023-12-14T10:09:48;14.60;55.50
80931;DHT22;70388;42.698;23.324;2023-12-14T10:12:15;14.60;55.80
80931;DHT22;70388;42.698;23.324;2023-12-14T10:14:41;14.50;56.10
80931;DHT22;70388;42.698;23.324;2023-12-14T10:17:21;14.50;56.30
80931;DHT22;70388;42.698;23.324;2023-12-14T10:19:47;14.50;56.30
80931;DHT22;70388;42.698;23.324;2023-12-14T10:22:15;14.40;56.50
80931;DHT22;70388;42.698;23.324;2023-12-14T10:24:43;14.40;56.60
80931;DHT22;70388;42.698;23.324;2023-12-14T10:27:10;14.40;56.50
80931;DHT22;70388;42.698;23.324;2023-12-14T10:29:40;14.30;56.30
80931;DHT22;70388;42.698;23.324;2023-12-14T10:32:07;14.50;56.30
80931;DHT22;70388;42.698;23.324;2023-12-14T10:34:35;14.50;56.00
80931;DHT22;70388;42.698;23.324;2023-12-14T10:37:05;14.50;56.10
80931;DHT22;70388;42.698;23.324;2023-12-14T10:39:34;14.40;56.40
80931;DHT22;70388;42.698;23.324;2023-12-14T10:42:03;14.30;56.80
80931;DHT22;70388;42.698;23.324;2023-12-14T10:44:37;14.30;57.50
80931;DHT22;70388;42.698;23.324;2023-12-14T10:47:03;14.20;60.20
80931;DHT22;70388;42.698;23.324;2023-12-14T10:49:31;14.10;61.90
80931;DHT22;70388;42.698;23.324;2023-12-14T10:52:00;14.00;62.60
80931;DHT22;70388;42.698;23.324;2023-12-14T10:54:28;13.80;63.50
80931;DHT22;70388;42.698;23.324;2023-12-14T10:56:56;13.60;65.00
80931;DHT22;70388;42.698;23.324;2023-12-14T10:59:25;13.60;66.00
80931;DHT22;70388;42.698;23.324;2023-12-14T11:01:53;13.60;67.10
80931;DHT22;70388;42.698;23.324;2023-12-14T11:04:21;13.60;67.80
80931;DHT22;70388;42.698;23.324;2023-12-14T11:06:47;13.40;67.60
80931;DHT22;70388;42.698;23.324;2023-12-14T11:09:17;13.30;67.80
80931;DHT22;70388;42.698;23.324;2023-12-14T11:14:19;13.20;66.90
80931;DHT22;70388;42.698;23.324;2023-12-14T11:16:47;13.00;67.70
80931;DHT22;70388;42.698;23.324;2023-12-14T11:24:24;12.50;67.90
80931;DHT22;70388;42.698;23.324;2023-12-14T11:26:51;12.30;67.60
80931;DHT22;70388;42.698;23.324;2023-12-14T11:29:18;12.10;68.00
80931;DHT22;70388;42.698;23.324;2023-12-14T11:31:45;12.00;67.80
80931;DHT22;70388;42.698;23.324;2023-12-14T11:34:11;12.00;67.30
80931;DHT22;70388;42.698;23.324;2023-12-14T11:36:37;11.70;67.80
80931;DHT22;70388;42.698;23.324;2023-12-14T11:39:09;11.60;68.00
80931;DHT22;70388;42.698;23.324;2023-12-14T11:41:35;11.50;68.20
80931;DHT22;70388;42.698;23.324;2023-12-14T11:44:02;11.40;68.60
80931;DHT22;70388;42.698;23.324;2023-12-14T11:46:29;11.40;69.00
80931;DHT22;70388;42.698;23.324;2023-12-14T11:48:56;11.60;67.70
80931;DHT22;70388;42.698;23.324;2023-12-14T11:51:22;11.60;67.20
80931;DHT22;70388;42.698;23.324;2023-12-14T11:53:49;11.50;67.40
80931;DHT22;70388;42.698;23.324;2023-12-14T11:56:19;11.40;67.60
80931;DHT22;70388;42.698;23.324;2023-12-14T11:58:45;11.30;68.10
80931;DHT22;70388;42.698;23.324;2023-12-14T12:01:19;11.20;67.80
80931;DHT22;70388;42.698;23.324;2023-12-14T12:03:46;11.20;67.80
80931;DHT22;70388;42.698;23.324;2023-12-14T12:06:26;11.20;68.00
80931;DHT22;70388;42.698;23.324;2023-12-14T12:08:57;11.10;68.10
80931;DHT22;70388;42.698;23.324;2023-12-14T12:11:24;11.10;68.40
80931;DHT22;70388;42.698;23.324;2023-12-14T12:13:59;11.10;68.70
80931;DHT22;70388;42.698;23.324;2023-12-14T12:16:25;10.90;69.00
80931;DHT22;70388;42.698;23.324;2023-12-14T12:18:54;10.80;69.60
80931;DHT22;70388;42.698;23.324;2023-12-14T12:21:20;10.90;69.30
80931;DHT22;70388;42.698;23.324;2023-12-14T12:23:46;10.90;69.30
80931;DHT22;70388;42.698;23.324;2023-12-14T12:26:11;10.90;69.20
80931;DHT22;70388;42.698;23.324;2023-12-14T12:28:37;11.00;68.80
80931;DHT22;70388;42.698;23.324;2023-12-14T12:31:03;11.00;68.70
80931;DHT22;70388;42.698;23.324;2023-12-14T12:33:29;11.10;68.80
80931;DHT22;70388;42.698;23.324;2023-12-14T12:35:55;11.00;68.60
80931;DHT22;70388;42.698;23.324;2023-12-14T12:38:21;10.90;69.00
80931;DHT22;70388;42.698;23.324;2023-12-14T12:40:47;11.00;68.60
80931;DHT22;70388;42.698;23.324;2023-12-14T12:43:13;11.00;68.70
80931;DHT22;70388;42.698;23.324;2023-12-14T12:45:40;10.90;69.20
80931;DHT22;70388;42.698;23.324;2023-12-14T12:48:05;10.80;69.60
80931;DHT22;70388;42.698;23.324;2023-12-14T12:50:33;10.70;69.80
80931;DHT22;70388;42.698;23.324;2023-12-14T12:52:59;10.60;70.50
80931;DHT22;70388;42.698;23.324;2023-12-14T12:55:25;10.50;71.20
80931;DHT22;70388;42.698;23.324;2023-12-14T12:57:51;10.40;71.60
80931;DHT22;70388;42.698;23.324;2023-12-14T13:00:16;10.40;71.60
80931;DHT22;70388;42.698;23.324;2023-12-14T13:02:43;10.50;71.70
80931;DHT22;70388;42.698;23.324;2023-12-14T13:05:10;10.40;71.70
80931;DHT22;70388;42.698;23.324;2023-12-14T13:07:37;10.30;72.30
80931;DHT22;70388;42.698;23.324;2023-12-14T13:10:04;10.20;72.80
80931;DHT22;70388;42.698;23.324;2023-12-14T13:12:31;10.20;72.40
80931;DHT22;70388;42.698;23.324;2023-12-14T13:14:57;10.30;72.20
80931;DHT22;70388;42.698;23.324;2023-12-14T13:17:23;10.30;71.90
80931;DHT22;70388;42.698;23.324;2023-12-14T13:19:49;10.30;71.40
80931;DHT22;70388;42.698;23.324;2023-12-14T13:22:15;10.40;71.10
80931;DHT22;70388;42.698;23.324;2023-12-14T13:24:41;10.30;70.90
80931;DHT22;70388;42.698;23.324;2023-12-14T13:27:07;10.10;71.10
80931;DHT22;70388;42.698;23.324;2023-12-14T13:29:33;10.10;71.30
80931;DHT22;70388;42.698;23.324;2023-12-14T13:32:00;10.00;71.60
80931;DHT22;70388;42.698;23.324;2023-12-14T13:34:26;10.10;71.20
80931;DHT22;70388;42.698;23.324;2023-12-14T13:36:53;10.10;70.40
80931;DHT22;70388;42.698;23.324;2023-12-14T13:39:19;10.10;70.50
80931;DHT22;70388;42.698;23.324;2023-12-14T13:41:45;10.10;70.30
80931;DHT22;70388;42.698;23.324;2023-12-14T13:44:11;10.10;70.00
80931;DHT22;70388;42.698;23.324;2023-12-14T13:46:37;10.20;69.40
80931;DHT22;70388;42.698;23.324;2023-12-14T13:49:02;10.20;69.20
80931;DHT22;70388;42.698;23.324;2023-12-14T13:51:29;10.30;69.20
80931;DHT22;70388;42.698;23.324;2023-12-14T13:53:54;10.10;69.30
80931;DHT22;70388;42.698;23.324;2023-12-14T13:56:20;10.20;69.40
80931;DHT22;70388;42.698;23.324;2023-12-14T13:58:46;10.20;69.20
80931;DHT22;70388;42.698;23.324;2023-12-14T14:01:12;10.20;69.40
80931;DHT22;70388;42.698;23.324;2023-12-14T14:03:37;10.10;69.60
80931;DHT22;70388;42.698;23.324;2023-12-14T14:06:04;10.10;69.60
80931;DHT22;70388;42.698;23.324;2023-12-14T14:08:30;10.20;69.10
80931;DHT22;70388;42.698;23.324;2023-12-14T14:10:59;10.10;69.20
80931;DHT22;70388;42.698;23.324;2023-12-14T14:13:26;10.10;68.80
80931;DHT22;70388;42.698;23.324;2023-12-14T14:15:52;10.10;68.70
80931;DHT22;70388;42.698;23.324;2023-12-14T14:18:17;10.00;69.00
80931;DHT22;70388;42.698;23.324;2023-12-14T14:20:43;10.00;69.00
80931;DHT22;70388;42.698;23.324;2023-12-14T14:23:09;10.00;68.80
80931;DHT22;70388;42.698;23.324;2023-12-14T14:25:35;9.90;68.90
80931;DHT22;70388;42.698;23.324;2023-12-14T14:28:01;9.90;69.00
80931;DHT22;70388;42.698;23.324;2023-12-14T14:30:26;10.00;68.80
80931;DHT22;70388;42.698;23.324;2023-12-14T14:32:52;10.10;68.20
80931;DHT22;70388;42.698;23.324;2023-12-14T14:35:18;10.10;67.70
80931;DHT22;70388;42.698;23.324;2023-12-14T14:37:44;10.10;67.50
80931;DHT22;70388;42.698;23.324;2023-12-14T14:40:13;10.20;67.40
80931;DHT22;70388;42.698;23.324;2023-12-14T14:42:43;10.10;67.50
80931;DHT22;70388;42.698;23.324;2023-12-14T14:45:10;10.10;67.40
80931;DHT22;70388;42.698;23.324;2023-12-14T14:47:37;10.20;67.60
80931;DHT22;70388;42.698;23.324;2023-12-14T14:50:03;10.00;68.00
80931;DHT22;70388;42.698;23.324;2023-12-14T14:52:30;10.00;68.30
80931;DHT22;70388;42.698;23.324;2023-12-14T14:54:56;10.10;68.20
80931;DHT22;70388;42.698;23.324;2023-12-14T14:57:22;10.10;68.00
80931;DHT22;70388;42.698;23.324;2023-12-14T14:59:48;10.10;68.30
80931;DHT22;70388;42.698;23.324;2023-12-14T15:02:14;10.10;68.60
80931;DHT22;70388;42.698;23.324;2023-12-14T15:04:40;10.10;68.60
80931;DHT22;70388;42.698;23.324;2023-12-14T15:07:05;10.00;69.20
80931;DHT22;70388;42.698;23.324;2023-12-14T15:09:31;10.10;69.40
80931;DHT22;70388;42.698;23.324;2023-12-14T15:11:57;10.10;69.30
80931;DHT22;70388;42.698;23.324;2023-12-14T15:14:22;9.90;70.10
80931;DHT22;70388;42.698;23.324;2023-12-14T15:16:49;9.90;70.50
80931;DHT22;70388;42.698;23.324;2023-12-14T15:19:14;9.70;71.00
80931;DHT22;70388;42.698;23.324;2023-12-14T15:21:40;9.70;71.40
80931;DHT22;70388;42.698;23.324;2023-12-14T15:24:06;9.80;71.40
80931;DHT22;70388;42.698;23.324;2023-12-14T15:26:32;9.70;71.50